شیراز, ایران

02:09 PM IRST on دسامبر 21, 2014 (GMT +0330)
Shahid Dastghaib International | Change Station
CLOSE
Current Station
Airport
Location: Shiraz,
Elevation: 4869 ft
Nearby Weather Stations

Elev 4869 ft 29.54 °N, 52.59 °E | Updated 9 minutes ago

Mostly Cloudy
بیشتر ابری
63 °F
Feels Like 63 °F
N
18
باد متغير باد from غرب

امروز
High -- | Low -- °F
--% Chance of Precip.
دیروز
High -- | Low -- °F
Precip. -- در
6:50 AM 5:05 PM
Waning Crescent, 1% visible
فشار 29.98 در
ديد 6.2 مايل، ميل (در برابر كيلومتر
ابری Few 3500 ft
ابرهای پراکنده 4000 ft
بیشتر ابری 18000 ft
قطره شبنم 36 °F
رطوبت 37%
بارش باران 0.00 در
برف عمیق Not available.
مادون قرمز 1 out of 12
Pollen Not available.
تمیزی هوا Not available.
Flu Activity Not available.
METAR OISS 211030Z 26016KT 9999 FEW035CB SCT040 BKN180 17/02 Q1015 A2998

More Conditions Fewer Conditions

فشار 29.98 در
ديد 6.2 مايل، ميل (در برابر كيلومتر
ابری Few 3500 ft
ابرهای پراکنده 4000 ft
بیشتر ابری 18000 ft
قطره شبنم 36 °F
رطوبت 37%
بارش باران 0.00 در
برف عمیق Not available.
مادون قرمز 1 out of 12
Pollen Not available.
تمیزی هوا Not available.
Flu Activity Not available.
METAR OISS 211030Z 26016KT 9999 FEW035CB SCT040 BKN180 17/02 Q1015 A2998

More Conditions Fewer Conditions

10-Day Weather Forecast

Almanac

ستاره شناسی

Dec. 21, 2014 Rise Set
وقت حقیقی
تاریک و روشن اجتماعی
تاریک روشن دریایی
شفق و فلق نجومی
ماه
میزان روشنایی روز
طول روز
Tomorrow will be .
, % of the Moon is Illuminated

Today's Extremes

Country Highs Country Lows

Community

WunderPhotos

Upload Photos

1,779,367 photos uploaded!

WunderBlogs® & News

Nearby

تمیزی هوا

  تمیزی هوا AQ Index آلاینده
Not available.

عمق برف

Station Depth Elevation

Earthquake Activity

شهر Distance Mag. Time & Date
Minimum magnitude displayed is 2.5.

Coastal Water Temperatures

منطقه درجه حرارت

Nearby Weather Stations